Meshima, Japan

7:17 AM JST on August 31, 2014 (GMT +0900)
Fukue | Change Station
CLOSE
Current Station
Airport
Location: Fukue,
Elevation: 262 ft
Nearby Weather Stations

Elev 262 ft 32.67 °N, 128.83 °E | Updated 1 day ago

Mostly Cloudy
Mostly Cloudy
77 °F
Feels Like 77 °F
N
14
Wind Variable Wind from NE
Gusts mph

Today
High -- | Low -- °F
--% Chance of Precip.
Yesterday
High -- | Low -- °F
Precip. -- in
6:01 AM 6:52 PM
Waxing Crescent, 25% visible
Pressure 29.89 in
Visibility 6.2 miles
Clouds Few 1000 ft
Scattered Clouds 1500 ft
Mostly Cloudy 2500 ft
Dew Point 72 °F
Humidity 82%
Rainfall 0.00 in
Snow Depth Not available.
UV 0 out of 12
Pollen Not available.
Air Quality Not available.
Flu Activity Not available.
SPECI RJFE 290938Z 01005KT 9999 FEW010 SCT015 BKN025 23/21 Q1012 RMK 1CU010 3CU015 5CU025 A2990

More Conditions Fewer Conditions

Pressure 29.89 in
Visibility 6.2 miles
Clouds Few 1000 ft
Scattered Clouds 1500 ft
Mostly Cloudy 2500 ft
Dew Point 72 °F
Humidity 82%
Rainfall 0.00 in
Snow Depth Not available.
UV 0 out of 12
Pollen Not available.
Air Quality Not available.
Flu Activity Not available.
SPECI RJFE 290938Z 01005KT 9999 FEW010 SCT015 BKN025 23/21 Q1012 RMK 1CU010 3CU015 5CU025 A2990

More Conditions Fewer Conditions

10-Day Weather Forecast

Almanac

Astronomy

Aug. 31, 2014 Rise Set
Actual Time 6:01 AM JST 6:52 PM JST
Civil Twilight 5:36 AM JST 7:17 PM JST
Nautical Twilight 5:06 AM JST 7:46 PM JST
Astronomical Twilight 4:36 AM JST 8:17 PM JST
Moon 10:51 AM JST (8/31) 10:03 PM JST (8/31)
Length of Visible Light 13h 41m
Length of Day
12h 51m
Tomorrow will be 1m 51s shorter.
Waxing Crescent, 25% of the Moon is Illuminated
Aug 30
Waxing Crescent
Sep 2
First Quarter
Sep 8
Full
Sep 15
Last Quarter
Sep 24
New

Yesterday's Extremes

Country Highs Country Lows

Community

WunderPhotos

Upload Photos

1,748,657 photos uploaded!

WunderBlogs® & News

Nearby

Snow Depth

Not available.

Earthquake Activity

City Distance Mag. Time & Date
No recent earthquake activity has been reported nearby.
Minimum magnitude displayed is 2.5.

Coastal Water Temperatures

Place Temperature
No Stations Reporting

Nearby Weather Stations